Aviation Digital Data Service (ADDS)

Output produced by METARs form (0557 UTC 19 August 2019)
found at http://www.aviationweather.gov/metar/data/
 
METAR text: YPAD 190530Z 24011KT 9999 -DZ FEW032 BKN045 12/06 Q1029 NOSIG
Conditions at: YPAD (ADELAIDE INTL AR, AU) observed 0530 UTC 19 August 2019
Temperature: 12.0°C (54°F)
Dewpoint: 6.0°C (43°F) [RH = 67%]
Pressure (altimeter): 30.38 inches Hg (1029.0 mb)
Winds: from the WSW (240 degrees) at 13 MPH (11 knots; 5.7 m/s)
Visibility: 6 or more miles (10+ km)
Ceiling: 4500 feet AGL
Clouds: few clouds at 3200 feet AGL
broken clouds at 4500 feet AGL
Weather: -DZ  (light drizzle)

METAR text: YPAD 190500Z 23010KT 9999 VCSH FEW018 BKN055 13/05 Q1029 NOSIG
Conditions at: YPAD (ADELAIDE INTL AR, AU) observed 0500 UTC 19 August 2019
Temperature: 13.0°C (55°F)
Dewpoint: 5.0°C (41°F) [RH = 58%]
Pressure (altimeter): 30.38 inches Hg (1029.0 mb)
Winds: from the SW (230 degrees) at 12 MPH (10 knots; 5.1 m/s)
Visibility: 6 or more miles (10+ km)
Ceiling: 5500 feet AGL
Clouds: few clouds at 1800 feet AGL
broken clouds at 5500 feet AGL
Weather: VCSH  (showers in vicinity)

METAR text: YPAD 190430Z 19010KT 9999 VCSH FEW030 BKN045 12/07 Q1029 FM0450 23017KT 9999 -SHRA FEW025 SCT040
Conditions at: YPAD (ADELAIDE INTL AR, AU) observed 0430 UTC 19 August 2019
Temperature: 12.0°C (54°F)
Dewpoint: 7.0°C (45°F) [RH = 71%]
Pressure (altimeter): 30.38 inches Hg (1029.0 mb)
Winds: from the S (190 degrees) at 12 MPH (10 knots; 5.1 m/s)
Visibility: 6 or more miles (10+ km)
Ceiling: 4500 feet AGL
Clouds: few clouds at 3000 feet AGL
broken clouds at 4500 feet AGL
Weather: VCSH  (showers in vicinity)

METAR text: YPAD 190400Z 24013KT 9999 -SHRA SCT030 BKN045 13/06 Q1029
Conditions at: YPAD (ADELAIDE INTL AR, AU) observed 0400 UTC 19 August 2019
Temperature: 13.0°C (55°F)
Dewpoint: 6.0°C (43°F) [RH = 62%]
Pressure (altimeter): 30.38 inches Hg (1029.0 mb)
Winds: from the WSW (240 degrees) at 15 MPH (13 knots; 6.7 m/s)
Visibility: 6 or more miles (10+ km)
Ceiling: 4500 feet AGL
Clouds: scattered clouds at 3000 feet AGL
broken clouds at 4500 feet AGL
Weather: -SHRA  (light rain showers)

METAR text: YPAD 190330Z 24013KT 9999 VCSH FEW032 BKN050 13/05 Q1029 NOSIG
Conditions at: YPAD (ADELAIDE INTL AR, AU) observed 0330 UTC 19 August 2019
Temperature: 13.0°C (55°F)
Dewpoint: 5.0°C (41°F) [RH = 58%]
Pressure (altimeter): 30.38 inches Hg (1029.0 mb)
Winds: from the WSW (240 degrees) at 15 MPH (13 knots; 6.7 m/s)
Visibility: 6 or more miles (10+ km)
Ceiling: 5000 feet AGL
Clouds: few clouds at 3200 feet AGL
broken clouds at 5000 feet AGL
Weather: VCSH  (showers in vicinity)

METAR text: YPAD 190300Z 23013KT 9999 VCSH FEW035 BKN055 13/05 Q1029 NOSIG
Conditions at: YPAD (ADELAIDE INTL AR, AU) observed 0300 UTC 19 August 2019
Temperature: 13.0°C (55°F)
Dewpoint: 5.0°C (41°F) [RH = 58%]
Pressure (altimeter): 30.38 inches Hg (1029.0 mb)
Winds: from the SW (230 degrees) at 15 MPH (13 knots; 6.7 m/s)
Visibility: 6 or more miles (10+ km)
Ceiling: 5500 feet AGL
Clouds: few clouds at 3500 feet AGL
broken clouds at 5500 feet AGL
Weather: VCSH  (showers in vicinity)

METAR text: YPAD 190230Z 23014KT 9999 FEW035 13/06 Q1029 NOSIG
Conditions at: YPAD (ADELAIDE INTL AR, AU) observed 0230 UTC 19 August 2019
Temperature: 13.0°C (55°F)
Dewpoint: 6.0°C (43°F) [RH = 62%]
Pressure (altimeter): 30.38 inches Hg (1029.0 mb)
Winds: from the SW (230 degrees) at 16 MPH (14 knots; 7.2 m/s)
Visibility: 6 or more miles (10+ km)
Ceiling: at least 12,000 feet AGL
Clouds: few clouds at 3500 feet AGL
Weather: no significant weather observed at this time

METAR text: YPAD 190200Z 22014KT 9999 -SHRA BKN032 11/06 Q1029 NOSIG
Conditions at: YPAD (ADELAIDE INTL AR, AU) observed 0200 UTC 19 August 2019
Temperature: 11.0°C (52°F)
Dewpoint: 6.0°C (43°F) [RH = 71%]
Pressure (altimeter): 30.38 inches Hg (1029.0 mb)
Winds: from the SW (220 degrees) at 16 MPH (14 knots; 7.2 m/s)
Visibility: 6 or more miles (10+ km)
Ceiling: 3200 feet AGL
Clouds: broken clouds at 3200 feet AGL
Weather: -SHRA  (light rain showers)

METAR text: YPAD 190130Z 23016KT 9999 BKN032 13/06 Q1028 NOSIG
Conditions at: YPAD (ADELAIDE INTL AR, AU) observed 0130 UTC 19 August 2019
Temperature: 13.0°C (55°F)
Dewpoint: 6.0°C (43°F) [RH = 62%]
Pressure (altimeter): 30.35 inches Hg (1028.0 mb)
Winds: from the SW (230 degrees) at 18 MPH (16 knots; 8.2 m/s)
Visibility: 6 or more miles (10+ km)
Ceiling: 3200 feet AGL
Clouds: broken clouds at 3200 feet AGL
Weather: no significant weather observed at this time

METAR text: YPAD 190100Z 23016KT 9999 VCSH FEW030 12/05 Q1028 NOSIG
Conditions at: YPAD (ADELAIDE INTL AR, AU) observed 0100 UTC 19 August 2019
Temperature: 12.0°C (54°F)
Dewpoint: 5.0°C (41°F) [RH = 62%]
Pressure (altimeter): 30.35 inches Hg (1028.0 mb)
Winds: from the SW (230 degrees) at 18 MPH (16 knots; 8.2 m/s)
Visibility: 6 or more miles (10+ km)
Ceiling: at least 12,000 feet AGL
Clouds: few clouds at 3000 feet AGL
Weather: VCSH  (showers in vicinity)

METAR text: YPAD 190030Z 22016KT 9999 BKN033 12/05 Q1028 NOSIG
Conditions at: YPAD (ADELAIDE INTL AR, AU) observed 0030 UTC 19 August 2019
Temperature: 12.0°C (54°F)
Dewpoint: 5.0°C (41°F) [RH = 62%]
Pressure (altimeter): 30.35 inches Hg (1028.0 mb)
Winds: from the SW (220 degrees) at 18 MPH (16 knots; 8.2 m/s)
Visibility: 6 or more miles (10+ km)
Ceiling: 3300 feet AGL
Clouds: broken clouds at 3300 feet AGL
Weather: no significant weather observed at this time

METAR text: YPAD 190000Z 23014KT 9999 SCT035 11/04 Q1027 NOSIG
Conditions at: YPAD (ADELAIDE INTL AR, AU) observed 0000 UTC 19 August 2019
Temperature: 11.0°C (52°F)
Dewpoint: 4.0°C (39°F) [RH = 62%]
Pressure (altimeter): 30.32 inches Hg (1027.0 mb)
Winds: from the SW (230 degrees) at 16 MPH (14 knots; 7.2 m/s)
Visibility: 6 or more miles (10+ km)
Ceiling: at least 12,000 feet AGL
Clouds: scattered clouds at 3500 feet AGL
Weather: no significant weather observed at this time

METAR text: YPAD 182330Z 23015KT 9999 BKN035 11/04 Q1027 NOSIG
Conditions at: YPAD (ADELAIDE INTL AR, AU) observed 2330 UTC 18 August 2019
Temperature: 11.0°C (52°F)
Dewpoint: 4.0°C (39°F) [RH = 62%]
Pressure (altimeter): 30.32 inches Hg (1027.0 mb)
Winds: from the SW (230 degrees) at 17 MPH (15 knots; 7.7 m/s)
Visibility: 6 or more miles (10+ km)
Ceiling: 3500 feet AGL
Clouds: broken clouds at 3500 feet AGL
Weather: no significant weather observed at this time

METAR text: YPAD 182300Z 22014KT 9999 BKN035 11/04 Q1026 NOSIG
Conditions at: YPAD (ADELAIDE INTL AR, AU) observed 2300 UTC 18 August 2019
Temperature: 11.0°C (52°F)
Dewpoint: 4.0°C (39°F) [RH = 62%]
Pressure (altimeter): 30.30 inches Hg (1026.0 mb)
Winds: from the SW (220 degrees) at 16 MPH (14 knots; 7.2 m/s)
Visibility: 6 or more miles (10+ km)
Ceiling: 3500 feet AGL
Clouds: broken clouds at 3500 feet AGL
Weather: no significant weather observed at this time

METAR text: YPAD 182230Z 22012KT 9999 FEW035 10/03 Q1026 NOSIG
Conditions at: YPAD (ADELAIDE INTL AR, AU) observed 2230 UTC 18 August 2019
Temperature: 10.0°C (50°F)
Dewpoint: 3.0°C (37°F) [RH = 62%]
Pressure (altimeter): 30.30 inches Hg (1026.0 mb)
Winds: from the SW (220 degrees) at 14 MPH (12 knots; 6.2 m/s)
Visibility: 6 or more miles (10+ km)
Ceiling: at least 12,000 feet AGL
Clouds: few clouds at 3500 feet AGL
Weather: no significant weather observed at this time

METAR text: YPAD 182200Z 22015KT 9999 SCT035 10/03 Q1025 NOSIG
Conditions at: YPAD (ADELAIDE INTL AR, AU) observed 2200 UTC 18 August 2019
Temperature: 10.0°C (50°F)
Dewpoint: 3.0°C (37°F) [RH = 62%]
Pressure (altimeter): 30.27 inches Hg (1025.0 mb)
Winds: from the SW (220 degrees) at 17 MPH (15 knots; 7.7 m/s)
Visibility: 6 or more miles (10+ km)
Ceiling: at least 12,000 feet AGL
Clouds: scattered clouds at 3500 feet AGL
Weather: no significant weather observed at this time

METAR text: YPAD 182130Z 22015KT 9999 FEW035 10/03 Q1025 NOSIG
Conditions at: YPAD (ADELAIDE INTL AR, AU) observed 2130 UTC 18 August 2019
Temperature: 10.0°C (50°F)
Dewpoint: 3.0°C (37°F) [RH = 62%]
Pressure (altimeter): 30.27 inches Hg (1025.0 mb)
Winds: from the SW (220 degrees) at 17 MPH (15 knots; 7.7 m/s)
Visibility: 6 or more miles (10+ km)
Ceiling: at least 12,000 feet AGL
Clouds: few clouds at 3500 feet AGL
Weather: no significant weather observed at this time

METAR text: YPAD 182100Z 22016KT 9999 SCT035 10/03 Q1024 NOSIG
Conditions at: YPAD (ADELAIDE INTL AR, AU) observed 2100 UTC 18 August 2019
Temperature: 10.0°C (50°F)
Dewpoint: 3.0°C (37°F) [RH = 62%]
Pressure (altimeter): 30.24 inches Hg (1024.0 mb)
Winds: from the SW (220 degrees) at 18 MPH (16 knots; 8.2 m/s)
Visibility: 6 or more miles (10+ km)
Ceiling: at least 12,000 feet AGL
Clouds: scattered clouds at 3500 feet AGL
Weather: no significant weather observed at this time

METAR text: YPAD 182030Z 22017KT 9999 FEW019 BKN035 10/02 Q1024 NOSIG
Conditions at: YPAD (ADELAIDE INTL AR, AU) observed 2030 UTC 18 August 2019
Temperature: 10.0°C (50°F)
Dewpoint: 2.0°C (36°F) [RH = 57%]
Pressure (altimeter): 30.24 inches Hg (1024.0 mb)
Winds: from the SW (220 degrees) at 20 MPH (17 knots; 8.7 m/s)
Visibility: 6 or more miles (10+ km)
Ceiling: 3500 feet AGL
Clouds: few clouds at 1900 feet AGL
broken clouds at 3500 feet AGL
Weather: no significant weather observed at this time

METAR text: YPAD 182000Z 23017KT 9999 FEW035 10/02 Q1023 NOSIG
Conditions at: YPAD (ADELAIDE INTL AR, AU) observed 2000 UTC 18 August 2019
Temperature: 10.0°C (50°F)
Dewpoint: 2.0°C (36°F) [RH = 57%]
Pressure (altimeter): 30.21 inches Hg (1023.0 mb)
Winds: from the SW (230 degrees) at 20 MPH (17 knots; 8.7 m/s)
Visibility: 6 or more miles (10+ km)
Ceiling: at least 12,000 feet AGL
Clouds: few clouds at 3500 feet AGL
Weather: no significant weather observed at this time

METAR text: YPAD 181930Z 21012KT 9999 BKN035 10/02 Q1023 NOSIG
Conditions at: YPAD (ADELAIDE INTL AR, AU) observed 1930 UTC 18 August 2019
Temperature: 10.0°C (50°F)
Dewpoint: 2.0°C (36°F) [RH = 57%]
Pressure (altimeter): 30.21 inches Hg (1023.0 mb)
Winds: from the SSW (210 degrees) at 14 MPH (12 knots; 6.2 m/s)
Visibility: 6 or more miles (10+ km)
Ceiling: 3500 feet AGL
Clouds: broken clouds at 3500 feet AGL
Weather: no significant weather observed at this time

METAR text: YPAD 181900Z 22015KT 9999 SCT035 10/03 Q1023 NOSIG
Conditions at: YPAD (ADELAIDE INTL AR, AU) observed 1900 UTC 18 August 2019
Temperature: 10.0°C (50°F)
Dewpoint: 3.0°C (37°F) [RH = 62%]
Pressure (altimeter): 30.21 inches Hg (1023.0 mb)
Winds: from the SW (220 degrees) at 17 MPH (15 knots; 7.7 m/s)
Visibility: 6 or more miles (10+ km)
Ceiling: at least 12,000 feet AGL
Clouds: scattered clouds at 3500 feet AGL
Weather: no significant weather observed at this time

METAR text: YPAD 181830Z 22017KT 9999 BKN035 10/02 Q1023 NOSIG
Conditions at: YPAD (ADELAIDE INTL AR, AU) observed 1830 UTC 18 August 2019
Temperature: 10.0°C (50°F)
Dewpoint: 2.0°C (36°F) [RH = 57%]
Pressure (altimeter): 30.21 inches Hg (1023.0 mb)
Winds: from the SW (220 degrees) at 20 MPH (17 knots; 8.7 m/s)
Visibility: 6 or more miles (10+ km)
Ceiling: 3500 feet AGL
Clouds: broken clouds at 3500 feet AGL
Weather: no significant weather observed at this time

METAR text: YPAD 181800Z 22017KT 9999 SCT035 10/01 Q1023
Conditions at: YPAD (ADELAIDE INTL AR, AU) observed 1800 UTC 18 August 2019
Temperature: 10.0°C (50°F)
Dewpoint: 1.0°C (34°F) [RH = 53%]
Pressure (altimeter): 30.21 inches Hg (1023.0 mb)
Winds: from the SW (220 degrees) at 20 MPH (17 knots; 8.7 m/s)
Visibility: 6 or more miles (10+ km)
Ceiling: at least 12,000 feet AGL
Clouds: scattered clouds at 3500 feet AGL
Weather: no significant weather observed at this time

METAR text: YPAD 181730Z 23018KT 9999 BKN032 10/02 Q1022 NOSIG
Conditions at: YPAD (ADELAIDE INTL AR, AU) observed 1730 UTC 18 August 2019
Temperature: 10.0°C (50°F)
Dewpoint: 2.0°C (36°F) [RH = 57%]
Pressure (altimeter): 30.18 inches Hg (1022.0 mb)
Winds: from the SW (230 degrees) at 21 MPH (18 knots; 9.3 m/s)
Visibility: 6 or more miles (10+ km)
Ceiling: 3200 feet AGL
Clouds: broken clouds at 3200 feet AGL
Weather: no significant weather observed at this time

METAR text: YPAD 181700Z 23018KT 9999 FEW032 10/02 Q1022 NOSIG
Conditions at: YPAD (ADELAIDE INTL AR, AU) observed 1700 UTC 18 August 2019
Temperature: 10.0°C (50°F)
Dewpoint: 2.0°C (36°F) [RH = 57%]
Pressure (altimeter): 30.18 inches Hg (1022.0 mb)
Winds: from the SW (230 degrees) at 21 MPH (18 knots; 9.3 m/s)
Visibility: 6 or more miles (10+ km)
Ceiling: at least 12,000 feet AGL
Clouds: few clouds at 3200 feet AGL
Weather: no significant weather observed at this time

METAR text: YPAD 181630Z 22018KT 9999 FEW032 09/02 Q1022 INTER 1630/1800 24020G30KT 5000 SHRAGS FEW025 BKN030
Conditions at: YPAD (ADELAIDE INTL AR, AU) observed 1630 UTC 18 August 2019
Temperature: 9.0°C (48°F)
Dewpoint: 2.0°C (36°F) [RH = 61%]
Pressure (altimeter): 30.18 inches Hg (1022.0 mb)
Winds: from the SW (220 degrees) at 21 MPH (18 knots; 9.3 m/s)
Visibility: 6 or more miles (10+ km)
Ceiling: at least 12,000 feet AGL
Clouds: few clouds at 3200 feet AGL
Weather: no significant weather observed at this time

METAR text: YPAD 181600Z 23018KT 9999 SCT032 10/02 Q1022 INTER 1600/1800 24020G30KT 5000 SHRAGS FEW025 BKN030
Conditions at: YPAD (ADELAIDE INTL AR, AU) observed 1600 UTC 18 August 2019
Temperature: 10.0°C (50°F)
Dewpoint: 2.0°C (36°F) [RH = 57%]
Pressure (altimeter): 30.18 inches Hg (1022.0 mb)
Winds: from the SW (230 degrees) at 21 MPH (18 knots; 9.3 m/s)
Visibility: 6 or more miles (10+ km)
Ceiling: at least 12,000 feet AGL
Clouds: scattered clouds at 3200 feet AGL
Weather: no significant weather observed at this time

METAR text: YPAD 181530Z 23018KT 9999 SCT032 09/02 Q1022 INTER 1530/1800 24020G30KT 5000 SHRAGS FEW025 BKN030
Conditions at: YPAD (ADELAIDE INTL AR, AU) observed 1530 UTC 18 August 2019
Temperature: 9.0°C (48°F)
Dewpoint: 2.0°C (36°F) [RH = 61%]
Pressure (altimeter): 30.18 inches Hg (1022.0 mb)
Winds: from the SW (230 degrees) at 21 MPH (18 knots; 9.3 m/s)
Visibility: 6 or more miles (10+ km)
Ceiling: at least 12,000 feet AGL
Clouds: scattered clouds at 3200 feet AGL
Weather: no significant weather observed at this time

METAR text: YPAD 181500Z 23019KT 9999 FEW032 09/03 Q1022 INTER 1500/1800 24020G30KT 5000 SHRAGS FEW025 BKN030
Conditions at: YPAD (ADELAIDE INTL AR, AU) observed 1500 UTC 18 August 2019
Temperature: 9.0°C (48°F)
Dewpoint: 3.0°C (37°F) [RH = 66%]
Pressure (altimeter): 30.18 inches Hg (1022.0 mb)
Winds: from the SW (230 degrees) at 22 MPH (19 knots; 9.8 m/s)
Visibility: 6 or more miles (10+ km)
Ceiling: at least 12,000 feet AGL
Clouds: few clouds at 3200 feet AGL
Weather: no significant weather observed at this time

METAR text: YPAD 181430Z 23019KT 9999 FEW032 09/02 Q1021 INTER 1430/1730 24020G30KT 5000 SHRAGS FEW025 BKN030
Conditions at: YPAD (ADELAIDE INTL AR, AU) observed 1430 UTC 18 August 2019
Temperature: 9.0°C (48°F)
Dewpoint: 2.0°C (36°F) [RH = 61%]
Pressure (altimeter): 30.15 inches Hg (1021.0 mb)
Winds: from the SW (230 degrees) at 22 MPH (19 knots; 9.8 m/s)
Visibility: 6 or more miles (10+ km)
Ceiling: at least 12,000 feet AGL
Clouds: few clouds at 3200 feet AGL
Weather: no significant weather observed at this time

METAR text: YPAD 181400Z 23020KT 9999 FEW032 09/03 Q1021 INTER 1400/1700 24020G30KT 5000 SHRAGS FEW025 BKN030
Conditions at: YPAD (ADELAIDE INTL AR, AU) observed 1400 UTC 18 August 2019
Temperature: 9.0°C (48°F)
Dewpoint: 3.0°C (37°F) [RH = 66%]
Pressure (altimeter): 30.15 inches Hg (1021.0 mb)
Winds: from the SW (230 degrees) at 23 MPH (20 knots; 10.3 m/s)
Visibility: 6 or more miles (10+ km)
Ceiling: at least 12,000 feet AGL
Clouds: few clouds at 3200 feet AGL
Weather: no significant weather observed at this time

METAR text: YPAD 181342Z 23019G29KT 9999 SCT032 10/03 Q1021 INTER 1342/1642 24020G30KT 5000 SHRAGS FEW025 BKN030
Conditions at: YPAD (ADELAIDE INTL AR, AU) observed 1342 UTC 18 August 2019
Temperature: 10.0°C (50°F)
Dewpoint: 3.0°C (37°F) [RH = 62%]
Pressure (altimeter): 30.15 inches Hg (1021.0 mb)
Winds: from the SW (230 degrees) at 22 MPH (19 knots; 9.8 m/s)
gusting to 33 MPH (29 knots; 14.9 m/s)
Visibility: 6 or more miles (10+ km)
Ceiling: at least 12,000 feet AGL
Clouds: scattered clouds at 3200 feet AGL
Weather: no significant weather observed at this time

METAR text: YPAD 181330Z 23017KT 9999 FEW032 09/03 Q1021 INTER 1330/1630 24020G30KT 5000 SHRAGS FEW025 BKN030
Conditions at: YPAD (ADELAIDE INTL AR, AU) observed 1330 UTC 18 August 2019
Temperature: 9.0°C (48°F)
Dewpoint: 3.0°C (37°F) [RH = 66%]
Pressure (altimeter): 30.15 inches Hg (1021.0 mb)
Winds: from the SW (230 degrees) at 20 MPH (17 knots; 8.7 m/s)
Visibility: 6 or more miles (10+ km)
Ceiling: at least 12,000 feet AGL
Clouds: few clouds at 3200 feet AGL
Weather: no significant weather observed at this time

METAR text: YPAD 181300Z 23016KT 9999 FEW032 09/03 Q1020 INTER 1300/1600 24020G30KT 5000 SHRAGS FEW025 BKN030
Conditions at: YPAD (ADELAIDE INTL AR, AU) observed 1300 UTC 18 August 2019
Temperature: 9.0°C (48°F)
Dewpoint: 3.0°C (37°F) [RH = 66%]
Pressure (altimeter): 30.12 inches Hg (1020.0 mb)
Winds: from the SW (230 degrees) at 18 MPH (16 knots; 8.2 m/s)
Visibility: 6 or more miles (10+ km)
Ceiling: at least 12,000 feet AGL
Clouds: few clouds at 3200 feet AGL
Weather: no significant weather observed at this time

METAR text: YPAD 181230Z 23020KT 9999 FEW032 09/03 Q1020 INTER 1230/1530 24020G30KT 5000 SHRAGS FEW025 BKN030
Conditions at: YPAD (ADELAIDE INTL AR, AU) observed 1230 UTC 18 August 2019
Temperature: 9.0°C (48°F)
Dewpoint: 3.0°C (37°F) [RH = 66%]
Pressure (altimeter): 30.12 inches Hg (1020.0 mb)
Winds: from the SW (230 degrees) at 23 MPH (20 knots; 10.3 m/s)
Visibility: 6 or more miles (10+ km)
Ceiling: at least 12,000 feet AGL
Clouds: few clouds at 3200 feet AGL
Weather: no significant weather observed at this time

METAR text: YPAD 181200Z 22018KT 9999 SCT035 10/02 Q1020 INTER 1200/1500 24020G30KT 5000 SHRAGS FEW025 BKN030
Conditions at: YPAD (ADELAIDE INTL AR, AU) observed 1200 UTC 18 August 2019
Temperature: 10.0°C (50°F)
Dewpoint: 2.0°C (36°F) [RH = 57%]
Pressure (altimeter): 30.12 inches Hg (1020.0 mb)
Winds: from the SW (220 degrees) at 21 MPH (18 knots; 9.3 m/s)
Visibility: 6 or more miles (10+ km)
Ceiling: at least 12,000 feet AGL
Clouds: scattered clouds at 3500 feet AGL
Weather: no significant weather observed at this time

METAR text: YPAD 181130Z 23021KT 9999 BKN035 10/02 Q1019 INTER 1130/1430 24020G30KT 5000 SHRAGS FEW025 BKN030
Conditions at: YPAD (ADELAIDE INTL AR, AU) observed 1130 UTC 18 August 2019
Temperature: 10.0°C (50°F)
Dewpoint: 2.0°C (36°F) [RH = 57%]
Pressure (altimeter): 30.09 inches Hg (1019.0 mb)
Winds: from the SW (230 degrees) at 24 MPH (21 knots; 10.8 m/s)
Visibility: 6 or more miles (10+ km)
Ceiling: 3500 feet AGL
Clouds: broken clouds at 3500 feet AGL
Weather: no significant weather observed at this time

METAR text: YPAD 181100Z 23020KT 9999 SCT035 10/02 Q1019 INTER 1100/1400 24020G30KT 5000 SHRAGS FEW025 BKN030
Conditions at: YPAD (ADELAIDE INTL AR, AU) observed 1100 UTC 18 August 2019
Temperature: 10.0°C (50°F)
Dewpoint: 2.0°C (36°F) [RH = 57%]
Pressure (altimeter): 30.09 inches Hg (1019.0 mb)
Winds: from the SW (230 degrees) at 23 MPH (20 knots; 10.3 m/s)
Visibility: 6 or more miles (10+ km)
Ceiling: at least 12,000 feet AGL
Clouds: scattered clouds at 3500 feet AGL
Weather: no significant weather observed at this time

METAR text: YPAD 181030Z 24019KT 9999 SCT032 BKN060 10/05 Q1018 INTER 1030/1330 25020G30KT 5000 SHRAGS FEW025 BKN030
Conditions at: YPAD (ADELAIDE INTL AR, AU) observed 1030 UTC 18 August 2019
Temperature: 10.0°C (50°F)
Dewpoint: 5.0°C (41°F) [RH = 71%]
Pressure (altimeter): 30.06 inches Hg (1018.0 mb)
Winds: from the WSW (240 degrees) at 22 MPH (19 knots; 9.8 m/s)
Visibility: 6 or more miles (10+ km)
Ceiling: 6000 feet AGL
Clouds: scattered clouds at 3200 feet AGL
broken clouds at 6000 feet AGL
Weather: no significant weather observed at this time

METAR text: YPAD 181000Z 28014KT 9999 VCSH SCT035 SCT055 09/02 Q1018 FM1015 24014KT 9999 -SHRA FEW030 BKN040 INTER 1000/1300 25020G30KT 5000 SHRAGS FEW025 BKN030
Conditions at: YPAD (ADELAIDE INTL AR, AU) observed 1000 UTC 18 August 2019
Temperature: 9.0°C (48°F)
Dewpoint: 2.0°C (36°F) [RH = 61%]
Pressure (altimeter): 30.06 inches Hg (1018.0 mb)
Winds: from the W (280 degrees) at 16 MPH (14 knots; 7.2 m/s)
Visibility: 6 or more miles (10+ km)
Ceiling: at least 12,000 feet AGL
Clouds: scattered clouds at 3500 feet AGL
scattered clouds at 5500 feet AGL
Weather: VCSH  (showers in vicinity)

METAR text: YPAD 180956Z 28017G27KT 9999 -SHRA SCT035 BKN055 09/02 Q1017 FM1015 24018KT 9999 -SHRA FEW030 BKN040 INTER 0956/1200 25020G35KT 3000 SHRAGS FEW020 BKN025 INTER 1200/1256 5000 SHRAGS FEW025 BKN030
Conditions at: YPAD (ADELAIDE INTL AR, AU) observed 0956 UTC 18 August 2019
Temperature: 9.0°C (48°F)
Dewpoint: 2.0°C (36°F) [RH = 61%]
Pressure (altimeter): 30.03 inches Hg (1017.0 mb)
Winds: from the W (280 degrees) at 20 MPH (17 knots; 8.7 m/s)
gusting to 31 MPH (27 knots; 13.9 m/s)
Visibility: 6 or more miles (10+ km)
Ceiling: 5500 feet AGL
Clouds: scattered clouds at 3500 feet AGL
broken clouds at 5500 feet AGL
Weather: -SHRA  (light rain showers)

METAR text: YPAD 180930Z 24023G35KT 9999 VCSH SCT038 BKN060 08/04 Q1017 FM1000 24018KT 9999 -SHRA FEW030 BKN040 INTER 0930/1200 25020G35KT 3000 SHRAGS FEW020 BKN025 INTER 1200/1230 5000 SHRAGS FEW025 BKN030
Conditions at: YPAD (ADELAIDE INTL AR, AU) observed 0930 UTC 18 August 2019
Temperature: 8.0°C (46°F)
Dewpoint: 4.0°C (39°F) [RH = 76%]
Pressure (altimeter): 30.03 inches Hg (1017.0 mb)
Winds: from the WSW (240 degrees) at 26 MPH (23 knots; 11.8 m/s)
gusting to 40 MPH (35 knots; 18.0 m/s)
Visibility: 6 or more miles (10+ km)
Ceiling: 6000 feet AGL
Clouds: scattered clouds at 3800 feet AGL
broken clouds at 6000 feet AGL
Weather: VCSH  (showers in vicinity)

METAR text: YPAD 180920Z 25018G28KT 9000 -SHRA BKN042 BKN060 09/04 Q1017 FM0950 24018KT 9999 -SHRA FEW030 BKN040 INTER 0920/1200 25020G35KT 3000 SHRAGS FEW020 BKN025 INTER 1200/1210 5000 SHRAGS FEW025 BKN030
Conditions at: YPAD (ADELAIDE INTL AR, AU) observed 0920 UTC 18 August 2019
Temperature: 9.0°C (48°F)
Dewpoint: 4.0°C (39°F) [RH = 71%]
Pressure (altimeter): 30.03 inches Hg (1017.0 mb)
Winds: from the WSW (250 degrees) at 21 MPH (18 knots; 9.3 m/s)
gusting to 32 MPH (28 knots; 14.4 m/s)
Visibility: 6 miles ( 9 km)
Ceiling: 4200 feet AGL
Clouds: broken clouds at 4200 feet AGL
broken clouds at 6000 feet AGL
Weather: -SHRA  (light rain showers)

METAR text: YPAD 180900Z 25019KT 9999 FEW041 BKN060 OVC100 11/03 Q1016 INTER 0900/1200 25020G35KT 3000 SHRAGS FEW020 BKN025
Conditions at: YPAD (ADELAIDE INTL AR, AU) observed 0900 UTC 18 August 2019
Temperature: 11.0°C (52°F)
Dewpoint: 3.0°C (37°F) [RH = 58%]
Pressure (altimeter): 30.00 inches Hg (1016.0 mb)
Winds: from the WSW (250 degrees) at 22 MPH (19 knots; 9.8 m/s)
Visibility: 6 or more miles (10+ km)
Ceiling: 6000 feet AGL
Clouds: few clouds at 4100 feet AGL
broken clouds at 6000 feet AGL
overcast cloud deck at 10000 feet AGL
Weather: no significant weather observed at this time

METAR text: YPAD 180830Z 29015KT CAVOK 10/06 Q1015 FM0930 25014KT 9999 -SHRA FEW030 BKN040 INTER 0830/1130 25020G35KT 3000 SHRAGS FEW020 BKN025
Conditions at: YPAD (ADELAIDE INTL AR, AU) observed 0830 UTC 18 August 2019
Temperature: 10.0°C (50°F)
Dewpoint: 6.0°C (43°F) [RH = 76%]
Pressure (altimeter): 29.97 inches Hg (1015.0 mb)
Winds: from the WNW (290 degrees) at 17 MPH (15 knots; 7.7 m/s)
Visibility: 6 or more miles (10+ km)
Ceiling: ceiling and visibility are OK
Clouds: unknown
Weather: no significant weather observed at this time

METAR text: YPAD 180800Z 29015KT 9999 BKN042 BKN060 BKN075 09/06 Q1015 FM0830 25014KT 9999 -SHRA FEW030 BKN040 INTER 0800/1100 25020G35KT 3000 SHRAGS FEW020 BKN025
Conditions at: YPAD (ADELAIDE INTL AR, AU) observed 0800 UTC 18 August 2019
Temperature: 9.0°C (48°F)
Dewpoint: 6.0°C (43°F) [RH = 81%]
Pressure (altimeter): 29.97 inches Hg (1015.0 mb)
Winds: from the WNW (290 degrees) at 17 MPH (15 knots; 7.7 m/s)
Visibility: 6 or more miles (10+ km)
Ceiling: 4200 feet AGL
Clouds: broken clouds at 4200 feet AGL
broken clouds at 6000 feet AGL
broken clouds at 7500 feet AGL
Weather: no significant weather observed at this time

METAR text: YPAD 180730Z 29017KT 9999 FEW022 SCT051 BKN066 09/06 Q1015 FM0830 25014KT 9999 -SHRA FEW030 BKN040 INTER 0730/1030 25020G35KT 3000 SHRAGS FEW020 BKN025
Conditions at: YPAD (ADELAIDE INTL AR, AU) observed 0730 UTC 18 August 2019
Temperature: 9.0°C (48°F)
Dewpoint: 6.0°C (43°F) [RH = 81%]
Pressure (altimeter): 29.97 inches Hg (1015.0 mb)
Winds: from the WNW (290 degrees) at 20 MPH (17 knots; 8.7 m/s)
Visibility: 6 or more miles (10+ km)
Ceiling: 6600 feet AGL
Clouds: few clouds at 2200 feet AGL
scattered clouds at 5100 feet AGL
broken clouds at 6600 feet AGL
Weather: no significant weather observed at this time

METAR text: YPAD 180700Z 30014KT 9999 FEW018 SCT035 BKN052 09/05 Q1014 FM0730 25014KT 9999 -SHRA FEW030 BKN040 INTER 0700/1000 25020G35KT 3000 SHRAGS FEW020 BKN025
Conditions at: YPAD (ADELAIDE INTL AR, AU) observed 0700 UTC 18 August 2019
Temperature: 9.0°C (48°F)
Dewpoint: 5.0°C (41°F) [RH = 76%]
Pressure (altimeter): 29.94 inches Hg (1014.0 mb)
Winds: from the WNW (300 degrees) at 16 MPH (14 knots; 7.2 m/s)
Visibility: 6 or more miles (10+ km)
Ceiling: 5200 feet AGL
Clouds: few clouds at 1800 feet AGL
scattered clouds at 3500 feet AGL
broken clouds at 5200 feet AGL
Weather: no significant weather observed at this time

METAR text: YPAD 180648Z 26010KT 260V340 8000 -RA FEW020 BKN032 BKN042 08/05 Q1014 FM0650 25014KT 9999 -SHRA FEW030 BKN040 INTER 0648/0948 25020G35KT 3000 SHRAGS FEW020 BKN025
Conditions at: YPAD (ADELAIDE INTL AR, AU) observed 0648 UTC 18 August 2019
Temperature: 8.0°C (46°F)
Dewpoint: 5.0°C (41°F) [RH = 81%]
Pressure (altimeter): 29.94 inches Hg (1014.0 mb)
Winds: from the W (260 degrees) at 12 MPH (10 knots; 5.1 m/s)
Visibility: 5 miles ( 8 km)
Ceiling: 3200 feet AGL
Clouds: few clouds at 2000 feet AGL
broken clouds at 3200 feet AGL
broken clouds at 4200 feet AGL
Weather: -RA  (light rain)

METAR text: YPAD 180640Z 32006KT 270V340 9999 -RA BKN032 BKN047 BKN058 08/04 Q1014 RMK OVERSHOOT 1NM ON FINAL RUNWAY 23.06/13.
Conditions at: YPAD (ADELAIDE INTL AR, AU) observed 0640 UTC 18 August 2019
Temperature: 8.0°C (46°F)
Dewpoint: 4.0°C (39°F) [RH = 76%]
Pressure (altimeter): 29.94 inches Hg (1014.0 mb)
Winds: from the NW (320 degrees) at 7 MPH (6 knots; 3.1 m/s)
Visibility: 6 or more miles (10+ km)
Ceiling: 3200 feet AGL
Clouds: broken clouds at 3200 feet AGL
broken clouds at 4700 feet AGL
broken clouds at 5800 feet AGL
Weather: -RA  (light rain)

METAR text: YPAD 180633Z 28020G30KT 5000 RA FEW021 BKN032 BKN035 08/04 Q1014 RMK WS REPORTED UNDERSHOOT TRANSITION TO OVERSHOOT 1NM ON FINAL RUNWAY 23. 06/13Z
Conditions at: YPAD (ADELAIDE INTL AR, AU) observed 0633 UTC 18 August 2019
Temperature: 8.0°C (46°F)
Dewpoint: 4.0°C (39°F) [RH = 76%]
Pressure (altimeter): 29.94 inches Hg (1014.0 mb)
Winds: from the W (280 degrees) at 23 MPH (20 knots; 10.3 m/s)
gusting to 34 MPH (30 knots; 15.4 m/s)
Visibility: 3 miles ( 5 km)
Ceiling: 3200 feet AGL
Clouds: few clouds at 2100 feet AGL
broken clouds at 3200 feet AGL
broken clouds at 3500 feet AGL
Weather: RA  (moderate rain)

METAR text: YPAD 180630Z 28022KT 5000 RA FEW021 SCT030 BKN035 08/05 Q1014 RMK 1NM ON FINAL RUNWAY 23. AT 06/13Z FM0645 25018KT 9999 -SHRA FEW030 BKN040 INTER 0630/0930 25020G35KT 3000 SHRAGS FEW020 BKN025 INTER 0630/0640 27024G38KT 3000 TSRAGS FEW020 BKN025 FEW025CB
Conditions at: YPAD (ADELAIDE INTL AR, AU) observed 0630 UTC 18 August 2019
Temperature: 8.0°C (46°F)
Dewpoint: 5.0°C (41°F) [RH = 81%]
Pressure (altimeter): 29.94 inches Hg (1014.0 mb)
Winds: from the W (280 degrees) at 25 MPH (22 knots; 11.3 m/s)
Visibility: 3 miles ( 5 km)
Ceiling: 3500 feet AGL
Clouds: few clouds at 2100 feet AGL
scattered clouds at 3000 feet AGL
broken clouds at 3500 feet AGL
Weather: RA  (moderate rain)

METAR text: YPAD 180622Z 28026G36KT 5000 RA FEW025 BKN035 BKN045 08/05 Q1014 FM0640 25018KT 9999 -SHRA FEW030 BKN040 INTER 0622/0922 25020G35KT 3000 SHRAGS FEW020 BKN025 INTER 0622/0640 27024G38KT 3000 TSRAGS FEW020 BKN025 FEW025CB
Conditions at: YPAD (ADELAIDE INTL AR, AU) observed 0622 UTC 18 August 2019
Temperature: 8.0°C (46°F)
Dewpoint: 5.0°C (41°F) [RH = 81%]
Pressure (altimeter): 29.94 inches Hg (1014.0 mb)
Winds: from the W (280 degrees) at 30 MPH (26 knots; 13.4 m/s)
gusting to 41 MPH (36 knots; 18.5 m/s)
Visibility: 3 miles ( 5 km)
Ceiling: 3500 feet AGL
Clouds: few clouds at 2500 feet AGL
broken clouds at 3500 feet AGL
broken clouds at 4500 feet AGL
Weather: RA  (moderate rain)

METAR text: YPAD 180615Z 28027KT 5000 RA FEW023 BKN035 BKN043 08/06 Q1014 FM0640 25018KT 9999 -SHRA FEW030 BKN040 INTER 0615/0915 25020G35KT 3000 SHRAGS FEW020 BKN025 INTER 0615/0640 25024G38KT 3000 TSRAGS FEW020 BKN025 FEW025CB
Conditions at: YPAD (ADELAIDE INTL AR, AU) observed 0615 UTC 18 August 2019
Temperature: 8.0°C (46°F)
Dewpoint: 6.0°C (43°F) [RH = 87%]
Pressure (altimeter): 29.94 inches Hg (1014.0 mb)
Winds: from the W (280 degrees) at 31 MPH (27 knots; 13.9 m/s)
Visibility: 3 miles ( 5 km)
Ceiling: 3500 feet AGL
Clouds: few clouds at 2300 feet AGL
broken clouds at 3500 feet AGL
broken clouds at 4300 feet AGL
Weather: RA  (moderate rain)

METAR text: YPAD 180610Z 29017G30KT 8000 -RA FEW025 SCT035 BKN042 09/06 Q1014 FM0640 25018KT 9999 -SHRA FEW030 BKN040 INTER 0610/0910 25020G35KT 3000 SHRAGS FEW020 BKN025 INTER 0610/0640 25024G38KT 3000 TSRAGS FEW020 BKN025 FEW025CB
Conditions at: YPAD (ADELAIDE INTL AR, AU) observed 0610 UTC 18 August 2019
Temperature: 9.0°C (48°F)
Dewpoint: 6.0°C (43°F) [RH = 81%]
Pressure (altimeter): 29.94 inches Hg (1014.0 mb)
Winds: from the WNW (290 degrees) at 20 MPH (17 knots; 8.7 m/s)
gusting to 34 MPH (30 knots; 15.4 m/s)
Visibility: 5 miles ( 8 km)
Ceiling: 4200 feet AGL
Clouds: few clouds at 2500 feet AGL
scattered clouds at 3500 feet AGL
broken clouds at 4200 feet AGL
Weather: -RA  (light rain)

METAR text: YPAD 180600Z 29013KT 9999 FEW037 BKN046 BKN053 09/05 Q1013 FM0630 25018KT 9999 -SHRA FEW030 BKN040 INTER 0600/0900 25020G35KT 3000 SHRAGS FEW020 BKN025 INTER 0600/0630 25024G38KT 3000 TSRAGS FEW020 BKN025 FEW025CB
Conditions at: YPAD (ADELAIDE INTL AR, AU) observed 0600 UTC 18 August 2019
Temperature: 9.0°C (48°F)
Dewpoint: 5.0°C (41°F) [RH = 76%]
Pressure (altimeter): 29.91 inches Hg (1013.0 mb)
Winds: from the WNW (290 degrees) at 15 MPH (13 knots; 6.7 m/s)
Visibility: 6 or more miles (10+ km)
Ceiling: 4600 feet AGL
Clouds: few clouds at 3700 feet AGL
broken clouds at 4600 feet AGL
broken clouds at 5300 feet AGL
Weather: no significant weather observed at this time

METAR text: YPAD 180543Z 28015G26KT 6000 -RA FEW028 SCT035 BKN048 10/05 Q1013 FM0615 24018KT 9999 -SHRA FEW030 BKN040 INTER 0543/0843 25020G35KT 3000 SHRAGS FEW020 BKN025 INTER 0543/0630 25024G38KT 3000 TSRAGS FEW020 BKN025 FEW025CB
Conditions at: YPAD (ADELAIDE INTL AR, AU) observed 0543 UTC 18 August 2019
Temperature: 10.0°C (50°F)
Dewpoint: 5.0°C (41°F) [RH = 71%]
Pressure (altimeter): 29.91 inches Hg (1013.0 mb)
Winds: from the W (280 degrees) at 17 MPH (15 knots; 7.7 m/s)
gusting to 30 MPH (26 knots; 13.4 m/s)
Visibility: 4 miles ( 6 km)
Ceiling: 4800 feet AGL
Clouds: few clouds at 2800 feet AGL
scattered clouds at 3500 feet AGL
broken clouds at 4800 feet AGL
Weather: -RA  (light rain)

METAR text: YPAD 180530Z 27015KT 9999 FEW025 SCT030 BKN037 09/06 Q1013 INTER 0530/0830 25020G35KT 3000 SHRAGS FEW020 BKN025
Conditions at: YPAD (ADELAIDE INTL AR, AU) observed 0530 UTC 18 August 2019
Temperature: 9.0°C (48°F)
Dewpoint: 6.0°C (43°F) [RH = 81%]
Pressure (altimeter): 29.91 inches Hg (1013.0 mb)
Winds: from the W (270 degrees) at 17 MPH (15 knots; 7.7 m/s)
Visibility: 6 or more miles (10+ km)
Ceiling: 3700 feet AGL
Clouds: few clouds at 2500 feet AGL
scattered clouds at 3000 feet AGL
broken clouds at 3700 feet AGL
Weather: no significant weather observed at this time

METAR text: YPAD 180514Z 27027KT 5000 RA FEW023 SCT038 BKN045 08/05 Q1013 FM0530 25018KT 9999 -SHRA FEW025 BKN040 INTER 0514/0814 25020G35KT 3000 SHRAGS FEW020 BKN025
Conditions at: YPAD (ADELAIDE INTL AR, AU) observed 0514 UTC 18 August 2019
Temperature: 8.0°C (46°F)
Dewpoint: 5.0°C (41°F) [RH = 81%]
Pressure (altimeter): 29.91 inches Hg (1013.0 mb)
Winds: from the W (270 degrees) at 31 MPH (27 knots; 13.9 m/s)
Visibility: 3 miles ( 5 km)
Ceiling: 4500 feet AGL
Clouds: few clouds at 2300 feet AGL
scattered clouds at 3800 feet AGL
broken clouds at 4500 feet AGL
Weather: RA  (moderate rain)

METAR text: YPAD 180500Z 30019G31KT 5000 RA FEW040 BKN050 09/07 Q1012 FM0530 25018KT 9999 -SHRA FEW025 BKN040 INTER 0500/0800 25020G35KT 3000 SHRAGS FEW020 BKN025
Conditions at: YPAD (ADELAIDE INTL AR, AU) observed 0500 UTC 18 August 2019
Temperature: 9.0°C (48°F)
Dewpoint: 7.0°C (45°F) [RH = 87%]
Pressure (altimeter): 29.88 inches Hg (1012.0 mb)
Winds: from the WNW (300 degrees) at 22 MPH (19 knots; 9.8 m/s)
gusting to 36 MPH (31 knots; 15.9 m/s)
Visibility: 3 miles ( 5 km)
Ceiling: 5000 feet AGL
Clouds: few clouds at 4000 feet AGL
broken clouds at 5000 feet AGL
Weather: RA  (moderate rain)

METAR text: YPAD 180457Z 31019G31KT 4000 RA FEW017 SCT040 BKN050 09/07 Q1012 FM0530 25018KT 9999 -SHRA FEW025 BKN040 INTER 0457/0757 25020G38KT 3000 SHRAGS FEW020 BKN025
Conditions at: YPAD (ADELAIDE INTL AR, AU) observed 0457 UTC 18 August 2019
Temperature: 9.0°C (48°F)
Dewpoint: 7.0°C (45°F) [RH = 87%]
Pressure (altimeter): 29.88 inches Hg (1012.0 mb)
Winds: from the NW (310 degrees) at 22 MPH (19 knots; 9.8 m/s)
gusting to 36 MPH (31 knots; 15.9 m/s)
Visibility: 2.49 miles (4.01 km)
Ceiling: 5000 feet AGL
Clouds: few clouds at 1700 feet AGL
scattered clouds at 4000 feet AGL
broken clouds at 5000 feet AGL
Weather: RA  (moderate rain)

METAR text: YPAD 180450Z 31021KT 6000 -RA FEW020 SCT040 BKN050 09/05 Q1012 FM0530 25018KT 9999 -SHRA FEW025 BKN040 INTER 0450/0750 25020G38KT 3000 SHRAGS FEW020 BKN025
Conditions at: YPAD (ADELAIDE INTL AR, AU) observed 0450 UTC 18 August 2019
Temperature: 9.0°C (48°F)
Dewpoint: 5.0°C (41°F) [RH = 76%]
Pressure (altimeter): 29.88 inches Hg (1012.0 mb)
Winds: from the NW (310 degrees) at 24 MPH (21 knots; 10.8 m/s)
Visibility: 4 miles ( 6 km)
Ceiling: 5000 feet AGL
Clouds: few clouds at 2000 feet AGL
scattered clouds at 4000 feet AGL
broken clouds at 5000 feet AGL
Weather: -RA  (light rain)

METAR text: YPAD 180430Z 27021G31KT 5000 -RA FEW023 SCT040 BKN055 09/06 Q1012 FM0455 26018G32KT 9999 -SHRA FEW020 BKN035 FM0600 24018KT 9999 -SHRA SCT035 INTER 0430/0730 25020G38KT 3000 SHRAGS FEW020 BKN025
Conditions at: YPAD (ADELAIDE INTL AR, AU) observed 0430 UTC 18 August 2019
Temperature: 9.0°C (48°F)
Dewpoint: 6.0°C (43°F) [RH = 81%]
Pressure (altimeter): 29.88 inches Hg (1012.0 mb)
Winds: from the W (270 degrees) at 24 MPH (21 knots; 10.8 m/s)
gusting to 36 MPH (31 knots; 15.9 m/s)
Visibility: 3 miles ( 5 km)
Ceiling: 5500 feet AGL
Clouds: few clouds at 2300 feet AGL
scattered clouds at 4000 feet AGL
broken clouds at 5500 feet AGL
Weather: -RA  (light rain)

METAR text: YPAD 180423Z 29017G29KT 6000 -RA SCT040 BKN053 BKN070 10/05 Q1012 FM0453 26018G32KT 9999 -SHRA FEW020 BKN035 FM0600 24018KT 9999 -SHRA SCT035 INTER 0423/0723 25020G38KT 3000 SHRAGS FEW020 BKN025
Conditions at: YPAD (ADELAIDE INTL AR, AU) observed 0423 UTC 18 August 2019
Temperature: 10.0°C (50°F)
Dewpoint: 5.0°C (41°F) [RH = 71%]
Pressure (altimeter): 29.88 inches Hg (1012.0 mb)
Winds: from the WNW (290 degrees) at 20 MPH (17 knots; 8.7 m/s)
gusting to 33 MPH (29 knots; 14.9 m/s)
Visibility: 4 miles ( 6 km)
Ceiling: 5300 feet AGL
Clouds: scattered clouds at 4000 feet AGL
broken clouds at 5300 feet AGL
broken clouds at 7000 feet AGL
Weather: -RA  (light rain)

METAR text: YPAD 180400Z 28014KT CAVOK 10/05 Q1012 FM0600 24018KT 9999 -SHRA SCT035 INTER 0400/0700 25020G38KT 3000 SHRAGS FEW020 BKN025
Conditions at: YPAD (ADELAIDE INTL AR, AU) observed 0400 UTC 18 August 2019
Temperature: 10.0°C (50°F)
Dewpoint: 5.0°C (41°F) [RH = 71%]
Pressure (altimeter): 29.88 inches Hg (1012.0 mb)
Winds: from the W (280 degrees) at 16 MPH (14 knots; 7.2 m/s)
Visibility: 6 or more miles (10+ km)
Ceiling: ceiling and visibility are OK
Clouds: unknown
Weather: no significant weather observed at this time

METAR text: YPAD 180330Z 28011KT 9999 FEW042 SCT052 BKN074 10/05 Q1012 FM0600 24018KT 9999 -SHRA SCT035 INTER 0330/0630 25020G38KT 3000 SHRAGS FEW020 BKN025
Conditions at: YPAD (ADELAIDE INTL AR, AU) observed 0330 UTC 18 August 2019
Temperature: 10.0°C (50°F)
Dewpoint: 5.0°C (41°F) [RH = 71%]
Pressure (altimeter): 29.88 inches Hg (1012.0 mb)
Winds: from the W (280 degrees) at 13 MPH (11 knots; 5.7 m/s)
Visibility: 6 or more miles (10+ km)
Ceiling: 7400 feet AGL
Clouds: few clouds at 4200 feet AGL
scattered clouds at 5200 feet AGL
broken clouds at 7400 feet AGL
Weather: no significant weather observed at this time

METAR text: YPAD 180300Z 26014KT 9999 FEW048 SCT070 BKN100 09/04 Q1012 FM0300 26020G32KT 9999 -SHRA FEW020 BKN035 INTER 0300/0600 25020G38KT 3000 SHRAGS FEW020 BKN025
Conditions at: YPAD (ADELAIDE INTL AR, AU) observed 0300 UTC 18 August 2019
Temperature: 9.0°C (48°F)
Dewpoint: 4.0°C (39°F) [RH = 71%]
Pressure (altimeter): 29.88 inches Hg (1012.0 mb)
Winds: from the W (260 degrees) at 16 MPH (14 knots; 7.2 m/s)
Visibility: 6 or more miles (10+ km)
Ceiling: 10000 feet AGL
Clouds: few clouds at 4800 feet AGL
scattered clouds at 7000 feet AGL
broken clouds at 10000 feet AGL
Weather: no significant weather observed at this time

METAR text: YPAD 180247Z 25015KT 9999 FEW010 SCT038 BKN050 09/05 Q1012 FM0300 26020G32KT 9999 -SHRA FEW020 BKN035 INTER 0247/0547 25020G38KT 3000 SHRAGS FEW020 BKN025
Conditions at: YPAD (ADELAIDE INTL AR, AU) observed 0247 UTC 18 August 2019
Temperature: 9.0°C (48°F)
Dewpoint: 5.0°C (41°F) [RH = 76%]
Pressure (altimeter): 29.88 inches Hg (1012.0 mb)
Winds: from the WSW (250 degrees) at 17 MPH (15 knots; 7.7 m/s)
Visibility: 6 or more miles (10+ km)
Ceiling: 5000 feet AGL
Clouds: few clouds at 1000 feet AGL
scattered clouds at 3800 feet AGL
broken clouds at 5000 feet AGL
Weather: no significant weather observed at this time

METAR text: YPAD 180230Z 24031KT 3000 SHRA FEW016 BKN028 BKN034 08/05 Q1012 FM0250 26022G35KT 9999 -SHRA FEW020 BKN035 INTER 0250/0530 25020G38KT 3000 SHRAGS FEW020 BKN025
Conditions at: YPAD (ADELAIDE INTL AR, AU) observed 0230 UTC 18 August 2019
Temperature: 8.0°C (46°F)
Dewpoint: 5.0°C (41°F) [RH = 81%]
Pressure (altimeter): 29.88 inches Hg (1012.0 mb)
Winds: from the WSW (240 degrees) at 36 MPH (31 knots; 15.9 m/s)
Visibility: 1.86 miles (2.99 km)
Ceiling: 2800 feet AGL
Clouds: few clouds at 1600 feet AGL
broken clouds at 2800 feet AGL
broken clouds at 3400 feet AGL
Weather: SHRA  (rain showers)

METAR text: YPAD 180227Z 24033KT 4000 SHRA FEW019 BKN028 BKN034 08/05 Q1012 FM0250 26022G35KT 9999 -SHRA FEW020 BKN035 INTER 0250/0527 25020G38KT 3000 SHRAGS FEW020 BKN025
Conditions at: YPAD (ADELAIDE INTL AR, AU) observed 0227 UTC 18 August 2019
Temperature: 8.0°C (46°F)
Dewpoint: 5.0°C (41°F) [RH = 81%]
Pressure (altimeter): 29.88 inches Hg (1012.0 mb)
Winds: from the WSW (240 degrees) at 38 MPH (33 knots; 17.0 m/s)
Visibility: 2.49 miles (4.01 km)
Ceiling: 2800 feet AGL
Clouds: few clouds at 1900 feet AGL
broken clouds at 2800 feet AGL
broken clouds at 3400 feet AGL
Weather: SHRA  (rain showers)

METAR text: YPAD 180222Z 25023G38KT 4000 SHRA SCT028 BKN030 BKN035 08/05 Q1012 FM0245 26022G35KT 9999 -SHRA FEW020 BKN035 INTER 0245/0522 25020G38KT 3000 SHRAGS FEW020 BKN025
Conditions at: YPAD (ADELAIDE INTL AR, AU) observed 0222 UTC 18 August 2019
Temperature: 8.0°C (46°F)
Dewpoint: 5.0°C (41°F) [RH = 81%]
Pressure (altimeter): 29.88 inches Hg (1012.0 mb)
Winds: from the WSW (250 degrees) at 26 MPH (23 knots; 11.8 m/s)
gusting to 44 MPH (38 knots; 19.5 m/s)
Visibility: 2.49 miles (4.01 km)
Ceiling: 3000 feet AGL
Clouds: scattered clouds at 2800 feet AGL
broken clouds at 3000 feet AGL
broken clouds at 3500 feet AGL
Weather: SHRA  (rain showers)

METAR text: YPAD 180216Z 26017G31KT 6000 -SHRA FEW028 BKN034 BKN052 11/05 Q1012 FM0245 26022G35KT 9999 -SHRA FEW020 BKN035 INTER 0216/0300 26030G42KT 5000 SHRA FEW015 BKN025 INTER 0300/0516 25020G35KT 3000 SHRAGS FEW020 BKN025
Conditions at: YPAD (ADELAIDE INTL AR, AU) observed 0216 UTC 18 August 2019
Temperature: 11.0°C (52°F)
Dewpoint: 5.0°C (41°F) [RH = 66%]
Pressure (altimeter): 29.88 inches Hg (1012.0 mb)
Winds: from the W (260 degrees) at 20 MPH (17 knots; 8.7 m/s)
gusting to 36 MPH (31 knots; 15.9 m/s)
Visibility: 4 miles ( 6 km)
Ceiling: 3400 feet AGL
Clouds: few clouds at 2800 feet AGL
broken clouds at 3400 feet AGL
broken clouds at 5200 feet AGL
Weather: -SHRA  (light rain showers)

METAR text: YPAD 180200Z 27017KT 9999 FEW030 SCT036 12/05 Q1012 INTER 0200/0300 26030G42KT 5000 SHRA FEW015 BKN025 INTER 0300/0500 25020G35KT 3000 SHRAGS FEW020 BKN025
Conditions at: YPAD (ADELAIDE INTL AR, AU) observed 0200 UTC 18 August 2019
Temperature: 12.0°C (54°F)
Dewpoint: 5.0°C (41°F) [RH = 62%]
Pressure (altimeter): 29.88 inches Hg (1012.0 mb)
Winds: from the W (270 degrees) at 20 MPH (17 knots; 8.7 m/s)
Visibility: 6 or more miles (10+ km)
Ceiling: at least 12,000 feet AGL
Clouds: few clouds at 3000 feet AGL
scattered clouds at 3600 feet AGL
Weather: no significant weather observed at this time

METAR text: YPAD 180130Z 28017KT 9999 FEW020 SCT047 11/05 Q1012 INTER 0130/0300 26030G42KT 5000 SHRA FEW015 BKN025 INTER 0300/0430 25020G35KT 3000 SHRAGS FEW020 BKN025
Conditions at: YPAD (ADELAIDE INTL AR, AU) observed 0130 UTC 18 August 2019
Temperature: 11.0°C (52°F)
Dewpoint: 5.0°C (41°F) [RH = 66%]
Pressure (altimeter): 29.88 inches Hg (1012.0 mb)
Winds: from the W (280 degrees) at 20 MPH (17 knots; 8.7 m/s)
Visibility: 6 or more miles (10+ km)
Ceiling: at least 12,000 feet AGL
Clouds: few clouds at 2000 feet AGL
scattered clouds at 4700 feet AGL
Weather: no significant weather observed at this time

METAR text: YPAD 180100Z 26018KT 9999 FEW020 SCT043 10/06 Q1012 INTER 0100/0300 26030G42KT 5000 SHRA FEW015 BKN025 INTER 0300/0400 25020G35KT 3000 SHRAGS FEW020 BKN025
Conditions at: YPAD (ADELAIDE INTL AR, AU) observed 0100 UTC 18 August 2019
Temperature: 10.0°C (50°F)
Dewpoint: 6.0°C (43°F) [RH = 76%]
Pressure (altimeter): 29.88 inches Hg (1012.0 mb)
Winds: from the W (260 degrees) at 21 MPH (18 knots; 9.3 m/s)
Visibility: 6 or more miles (10+ km)
Ceiling: at least 12,000 feet AGL
Clouds: few clouds at 2000 feet AGL
scattered clouds at 4300 feet AGL
Weather: no significant weather observed at this time

METAR text: YPAD 180055Z 25021KT 8000 FEW020 SCT043 BKN068 10/06 Q1011 FM0055 26022G35KT 9999 -SHRA FEW020 BKN035 INTER 0055/0300 26030G42KT 5000 SHRA FEW015 BKN025 INTER 0300/0355 25020G35KT 3000 SHRAGS FEW020 BKN025
Conditions at: YPAD (ADELAIDE INTL AR, AU) observed 0055 UTC 18 August 2019
Temperature: 10.0°C (50°F)
Dewpoint: 6.0°C (43°F) [RH = 76%]
Pressure (altimeter): 29.85 inches Hg (1011.0 mb)
Winds: from the WSW (250 degrees) at 24 MPH (21 knots; 10.8 m/s)
Visibility: 5 miles ( 8 km)
Ceiling: 6800 feet AGL
Clouds: few clouds at 2000 feet AGL
scattered clouds at 4300 feet AGL
broken clouds at 6800 feet AGL
Weather: no significant weather observed at this time

METAR text: YPAD 180044Z 25021KT 8000 FEW016 BKN030 BKN047 09/06 Q1012 FM0055 26022G35KT 9999 -SHRA FEW020 BKN035 INTER 0044/0300 26030G42KT 5000 SHRA FEW015 BKN025 INTER 0300/0344 25020G35KT 3000 SHRAGS FEW020 BKN025
Conditions at: YPAD (ADELAIDE INTL AR, AU) observed 0044 UTC 18 August 2019
Temperature: 9.0°C (48°F)
Dewpoint: 6.0°C (43°F) [RH = 81%]
Pressure (altimeter): 29.88 inches Hg (1012.0 mb)
Winds: from the WSW (250 degrees) at 24 MPH (21 knots; 10.8 m/s)
Visibility: 5 miles ( 8 km)
Ceiling: 3000 feet AGL
Clouds: few clouds at 1600 feet AGL
broken clouds at 3000 feet AGL
broken clouds at 4700 feet AGL
Weather: no significant weather observed at this time

METAR text: YPAD 180037Z 26033G43KT 5000 -SHRA FEW018 BKN023 BKN030 08/06 Q1012 FM0100 26022G35KT 9999 -SHRA FEW020 BKN035 INTER 0100/0300 26030G42KT 5000 SHRA FEW015 BKN025 INTER 0300/0337 25020G35KT 3000 SHRAGS FEW020 BKN025
Conditions at: YPAD (ADELAIDE INTL AR, AU) observed 0037 UTC 18 August 2019
Temperature: 8.0°C (46°F)
Dewpoint: 6.0°C (43°F) [RH = 87%]
Pressure (altimeter): 29.88 inches Hg (1012.0 mb)
Winds: from the W (260 degrees) at 38 MPH (33 knots; 17.0 m/s)
gusting to 49 MPH (43 knots; 22.1 m/s)
Visibility: 3 miles ( 5 km)
Ceiling: 2300 feet AGL
Clouds: few clouds at 1800 feet AGL
broken clouds at 2300 feet AGL
broken clouds at 3000 feet AGL
Weather: -SHRA  (light rain showers)

METAR text: YPAD 180033Z 26020G38KT 5000 SHRA FEW020 BKN023 BKN028 09/06 Q1012 FM0055 26022G35KT 9999 -SHRA FEW020 BKN035 INTER 0055/0300 26030G42KT 5000 SHRA FEW015 BKN025 INTER 0300/0333 25020G35KT 3000 SHRAGS FEW020 BKN025
Conditions at: YPAD (ADELAIDE INTL AR, AU) observed 0033 UTC 18 August 2019
Temperature: 9.0°C (48°F)
Dewpoint: 6.0°C (43°F) [RH = 81%]
Pressure (altimeter): 29.88 inches Hg (1012.0 mb)
Winds: from the W (260 degrees) at 23 MPH (20 knots; 10.3 m/s)
gusting to 44 MPH (38 knots; 19.5 m/s)
Visibility: 3 miles ( 5 km)
Ceiling: 2300 feet AGL
Clouds: few clouds at 2000 feet AGL
broken clouds at 2300 feet AGL
broken clouds at 2800 feet AGL
Weather: SHRA  (rain showers)

METAR text: YPAD 180000Z 29019KT 9999 FEW027 BKN040 12/05 Q1011 INTER 0000/0300 26030G42KT 5000 SHRA FEW015 BKN025
Conditions at: YPAD (ADELAIDE INTL AR, AU) observed 0000 UTC 18 August 2019
Temperature: 12.0°C (54°F)
Dewpoint: 5.0°C (41°F) [RH = 62%]
Pressure (altimeter): 29.85 inches Hg (1011.0 mb)
Winds: from the WNW (290 degrees) at 22 MPH (19 knots; 9.8 m/s)
Visibility: 6 or more miles (10+ km)
Ceiling: 4000 feet AGL
Clouds: few clouds at 2700 feet AGL
broken clouds at 4000 feet AGL
Weather: no significant weather observed at this time

METAR text: YPAD 172330Z 28017KT 9999 FEW025 11/06 Q1011 INTER 2330/0230 26030G42KT 5000 SHRA FEW015 BKN025
Conditions at: YPAD (ADELAIDE INTL AR, AU) observed 2330 UTC 17 August 2019
Temperature: 11.0°C (52°F)
Dewpoint: 6.0°C (43°F) [RH = 71%]
Pressure (altimeter): 29.85 inches Hg (1011.0 mb)
Winds: from the W (280 degrees) at 20 MPH (17 knots; 8.7 m/s)
Visibility: 6 or more miles (10+ km)
Ceiling: at least 12,000 feet AGL
Clouds: few clouds at 2500 feet AGL
Weather: no significant weather observed at this time

METAR text: YPAD 172305Z 27019G29KT 9999 FEW025 SCT030 11/05 Q1011 INTER 2305/0205 26030G42KT 5000 SHRA FEW015 BKN025
Conditions at: YPAD (ADELAIDE INTL AR, AU) observed 2305 UTC 17 August 2019
Temperature: 11.0°C (52°F)
Dewpoint: 5.0°C (41°F) [RH = 66%]
Pressure (altimeter): 29.85 inches Hg (1011.0 mb)
Winds: from the W (270 degrees) at 22 MPH (19 knots; 9.8 m/s)
gusting to 33 MPH (29 knots; 14.9 m/s)
Visibility: 6 or more miles (10+ km)
Ceiling: at least 12,000 feet AGL
Clouds: few clouds at 2500 feet AGL
scattered clouds at 3000 feet AGL
Weather: no significant weather observed at this time

METAR text: YPAD 172300Z 27021KT 9999 FEW025 SCT030 11/05 Q1011 INTER 2300/0200 26030G42KT 5000 SHRA FEW015 BKN025
Conditions at: YPAD (ADELAIDE INTL AR, AU) observed 2300 UTC 17 August 2019
Temperature: 11.0°C (52°F)
Dewpoint: 5.0°C (41°F) [RH = 66%]
Pressure (altimeter): 29.85 inches Hg (1011.0 mb)
Winds: from the W (270 degrees) at 24 MPH (21 knots; 10.8 m/s)
Visibility: 6 or more miles (10+ km)
Ceiling: at least 12,000 feet AGL
Clouds: few clouds at 2500 feet AGL
scattered clouds at 3000 feet AGL
Weather: no significant weather observed at this time

METAR text: YPAD 172230Z 28026G37KT 9999 VCSH FEW024 SCT030 BKN036 11/06 Q1010 INTER 2230/2300 5000 SHRA SCT012 BKN020 INTER 2300/0130 26025G38KT 5000 SHRA FEW015 BKN025
Conditions at: YPAD (ADELAIDE INTL AR, AU) observed 2230 UTC 17 August 2019
Temperature: 11.0°C (52°F)
Dewpoint: 6.0°C (43°F) [RH = 71%]
Pressure (altimeter): 29.82 inches Hg (1010.0 mb)
Winds: from the W (280 degrees) at 30 MPH (26 knots; 13.4 m/s)
gusting to 43 MPH (37 knots; 19.0 m/s)
Visibility: 6 or more miles (10+ km)
Ceiling: 3600 feet AGL
Clouds: few clouds at 2400 feet AGL
scattered clouds at 3000 feet AGL
broken clouds at 3600 feet AGL
Weather: VCSH  (showers in vicinity)

METAR text: YPAD 172217Z 29021G31KT 9999 SCT030 12/06 Q1010 FM2245 27022G35KT 9999 -SHRA FEW020 BKN035 INTER 2217/2300 5000 SHRA SCT012 BKN020 INTER 2300/0117 26025G38KT 5000 SHRA FEW015 BKN025
Conditions at: YPAD (ADELAIDE INTL AR, AU) observed 2217 UTC 17 August 2019
Temperature: 12.0°C (54°F)
Dewpoint: 6.0°C (43°F) [RH = 67%]
Pressure (altimeter): 29.82 inches Hg (1010.0 mb)
Winds: from the WNW (290 degrees) at 24 MPH (21 knots; 10.8 m/s)
gusting to 36 MPH (31 knots; 15.9 m/s)
Visibility: 6 or more miles (10+ km)
Ceiling: at least 12,000 feet AGL
Clouds: scattered clouds at 3000 feet AGL
Weather: no significant weather observed at this time

METAR text: YPAD 172200Z 29019KT 9999 FEW043 SCT051 12/06 Q1010 FM2245 27022G35KT 9999 -SHRA FEW020 BKN035 INTER 2200/2300 5000 SHRA SCT012 BKN020 INTER 2300/0100 26025G38KT 5000 SHRA FEW015 BKN025
Conditions at: YPAD (ADELAIDE INTL AR, AU) observed 2200 UTC 17 August 2019
Temperature: 12.0°C (54°F)
Dewpoint: 6.0°C (43°F) [RH = 67%]
Pressure (altimeter): 29.82 inches Hg (1010.0 mb)
Winds: from the WNW (290 degrees) at 22 MPH (19 knots; 9.8 m/s)
Visibility: 6 or more miles (10+ km)
Ceiling: at least 12,000 feet AGL
Clouds: few clouds at 4300 feet AGL
scattered clouds at 5100 feet AGL
Weather: no significant weather observed at this time

METAR text: YPAD 172131Z 30018G33KT 9999 FEW033 BKN040 BKN050 12/07 Q1010 FM2300 27022G35KT 9999 -SHRA FEW020 BKN035 INTER 2131/2300 5000 SHRA SCT012 BKN020 INTER 2300/0031 26025G38KT 5000 SHRA FEW015 BKN025
Conditions at: YPAD (ADELAIDE INTL AR, AU) observed 2131 UTC 17 August 2019
Temperature: 12.0°C (54°F)
Dewpoint: 7.0°C (45°F) [RH = 71%]
Pressure (altimeter): 29.82 inches Hg (1010.0 mb)
Winds: from the WNW (300 degrees) at 21 MPH (18 knots; 9.3 m/s)
gusting to 38 MPH (33 knots; 17.0 m/s)
Visibility: 6 or more miles (10+ km)
Ceiling: 4000 feet AGL
Clouds: few clouds at 3300 feet AGL
broken clouds at 4000 feet AGL
broken clouds at 5000 feet AGL
Weather: no significant weather observed at this time

METAR text: YPAD 172100Z 31018KT 9999 -SHRA FEW020 BKN030 BKN120 12/09 Q1009 FM2300 27022G35KT 9999 -SHRA FEW020 BKN035 INTER 2100/2300 5000 SHRA SCT012 BKN020 INTER 2300/0000 26025G38KT 5000 SHRA FEW015 BKN025
Conditions at: YPAD (ADELAIDE INTL AR, AU) observed 2100 UTC 17 August 2019
Temperature: 12.0°C (54°F)
Dewpoint: 9.0°C (48°F) [RH = 82%]
Pressure (altimeter): 29.79 inches Hg (1009.0 mb)
Winds: from the NW (310 degrees) at 21 MPH (18 knots; 9.3 m/s)
Visibility: 6 or more miles (10+ km)
Ceiling: 3000 feet AGL
Clouds: few clouds at 2000 feet AGL
broken clouds at 3000 feet AGL
broken clouds at 12000 feet AGL
Weather: -SHRA  (light rain showers)

METAR text: YPAD 172030Z 31014KT 9999 FEW020 BKN120 12/08 Q1009 FM2100 29020KT 9999 -SHRA SCT020 BKN030 FM2300 27022G35KT 9999 -SHRA FEW020 BKN035 INTER 2030/2300 5000 SHRA SCT012 BKN020 INTER 2300/2330 26025G38KT 5000 SHRA FEW015 BKN025
Conditions at: YPAD (ADELAIDE INTL AR, AU) observed 2030 UTC 17 August 2019
Temperature: 12.0°C (54°F)
Dewpoint: 8.0°C (46°F) [RH = 76%]
Pressure (altimeter): 29.79 inches Hg (1009.0 mb)
Winds: from the NW (310 degrees) at 16 MPH (14 knots; 7.2 m/s)
Visibility: 6 or more miles (10+ km)
Ceiling: 12000 feet AGL
Clouds: few clouds at 2000 feet AGL
broken clouds at 12000 feet AGL
Weather: no significant weather observed at this time

METAR text: YPAD 172000Z 31014KT 9999 FEW020 BKN110 13/09 Q1009 FM2100 29020KT 9999 -SHRA SCT020 BKN030 INTER 2000/2300 5000 SHRA SCT012 BKN020
Conditions at: YPAD (ADELAIDE INTL AR, AU) observed 2000 UTC 17 August 2019
Temperature: 13.0°C (55°F)
Dewpoint: 9.0°C (48°F) [RH = 77%]
Pressure (altimeter): 29.79 inches Hg (1009.0 mb)
Winds: from the NW (310 degrees) at 16 MPH (14 knots; 7.2 m/s)
Visibility: 6 or more miles (10+ km)
Ceiling: 11000 feet AGL
Clouds: few clouds at 2000 feet AGL
broken clouds at 11000 feet AGL
Weather: no significant weather observed at this time

METAR text: YPAD 171930Z 31012KT 9999 FEW020 BKN100 13/09 Q1009 FM2100 29020KT 9999 -SHRA SCT020 BKN030 INTER 1930/2230 5000 SHRA SCT012 BKN020
Conditions at: YPAD (ADELAIDE INTL AR, AU) observed 1930 UTC 17 August 2019
Temperature: 13.0°C (55°F)
Dewpoint: 9.0°C (48°F) [RH = 77%]
Pressure (altimeter): 29.79 inches Hg (1009.0 mb)
Winds: from the NW (310 degrees) at 14 MPH (12 knots; 6.2 m/s)
Visibility: 6 or more miles (10+ km)
Ceiling: 10000 feet AGL
Clouds: few clouds at 2000 feet AGL
broken clouds at 10000 feet AGL
Weather: no significant weather observed at this time

METAR text: YPAD 171900Z 31011KT 9000 FEW020 OVC100 13/10 Q1009 FM2100 29020KT 9999 -SHRA SCT020 BKN030 INTER 1900/2200 5000 SHRA SCT012 BKN020
Conditions at: YPAD (ADELAIDE INTL AR, AU) observed 1900 UTC 17 August 2019
Temperature: 13.0°C (55°F)
Dewpoint: 10.0°C (50°F) [RH = 82%]
Pressure (altimeter): 29.79 inches Hg (1009.0 mb)
Winds: from the NW (310 degrees) at 13 MPH (11 knots; 5.7 m/s)
Visibility: 6 miles ( 9 km)
Ceiling: 10000 feet AGL
Clouds: few clouds at 2000 feet AGL
overcast cloud deck at 10000 feet AGL
Weather: no significant weather observed at this time

METAR text: YPAD 171830Z 31013KT 9999 FEW018 SCT030 BKN090 13/11 Q1009 FM2100 29020KT 9999 -SHRA SCT020 BKN030 INTER 1830/2130 5000 SHRA SCT012 BKN020
Conditions at: YPAD (ADELAIDE INTL AR, AU) observed 1830 UTC 17 August 2019
Temperature: 13.0°C (55°F)
Dewpoint: 11.0°C (52°F) [RH = 88%]
Pressure (altimeter): 29.79 inches Hg (1009.0 mb)
Winds: from the NW (310 degrees) at 15 MPH (13 knots; 6.7 m/s)
Visibility: 6 or more miles (10+ km)
Ceiling: 9000 feet AGL
Clouds: few clouds at 1800 feet AGL
scattered clouds at 3000 feet AGL
broken clouds at 9000 feet AGL
Weather: no significant weather observed at this time

METAR text: YPAD 171800Z 34008KT 9000 -RA SCT018 BKN050 13/11 Q1009 INTER 1800/2100 5000 SHRA SCT012 BKN020
Conditions at: YPAD (ADELAIDE INTL AR, AU) observed 1800 UTC 17 August 2019
Temperature: 13.0°C (55°F)
Dewpoint: 11.0°C (52°F) [RH = 88%]
Pressure (altimeter): 29.79 inches Hg (1009.0 mb)
Winds: from the NNW (340 degrees) at 9 MPH (8 knots; 4.1 m/s)
Visibility: 6 miles ( 9 km)
Ceiling: 5000 feet AGL
Clouds: scattered clouds at 1800 feet AGL
broken clouds at 5000 feet AGL
Weather: -RA  (light rain)

Forecast for: AMD
Text: TAF AMD YPAD 190506Z 1906/2012 23014KT 9999 -SHRA SCT025 BKN040
Forecast period: 0600 to 0800 UTC 19 August 2019
Forecast type: FROM: standard forecast or significant change
Winds: from the SW (230 degrees) at 16 MPH (14 knots; 7.2 m/s)
Visibility: 6 or more miles 10+ km)
Ceiling: 4000 feet AGL
Clouds: scattered clouds at 2500 feet AGL
broken clouds at 4000 feet AGL
Weather: -SHRA  (light rain showers)
Text: FM190800 26010KT 9999 -SHRA SCT020 BKN040
Forecast period: 0800 to 2000 UTC 19 August 2019
Forecast type: FROM: standard forecast or significant change
Winds: from the W (260 degrees) at 12 MPH (10 knots; 5.1 m/s)
Visibility: 6 or more miles 10+ km)
Ceiling: 4000 feet AGL
Clouds: scattered clouds at 2000 feet AGL
broken clouds at 4000 feet AGL
Weather: -SHRA  (light rain showers)
Text: FM192000 28010KT 9999 -SHRA SCT015 BKN020
Forecast period: 2000 UTC 19 August 2019 to 0000 UTC 20 August 2019
Forecast type: FROM: standard forecast or significant change
Winds: from the W (280 degrees) at 12 MPH (10 knots; 5.1 m/s)
Visibility: 6 or more miles 10+ km)
Ceiling: 2000 feet AGL
Clouds: scattered clouds at 1500 feet AGL
broken clouds at 2000 feet AGL
Weather: -SHRA  (light rain showers)
Text: FM200000 28014KT 9999 -SHRA SCT025 BKN035 INTER 1921/1924 5000 SHRA BKN015
Forecast period: 0000 to 1200 UTC 20 August 2019
Forecast type: FROM: standard forecast or significant change
Winds: from the W (280 degrees) at 16 MPH (14 knots; 7.2 m/s)
Visibility: 6 or more miles 10+ km)
Ceiling: 3500 feet AGL
Clouds: scattered clouds at 2500 feet AGL
broken clouds at 3500 feet AGL
Weather: -SHRA  (light rain showers)
Text:
Forecast period: 2100 UTC 19 August 2019 to 0000 UTC 20 August 2019
Forecast type: TEMPORARY: The following changes expected for less than half the time period
Visibility: 3 miles (5 km)
Ceiling: 1500 feet AGL
Clouds: broken clouds at 1500 feet AGL
Weather: SHRA  (rain showers)